Barranquilla, Colombia

3:41 AM COT en Octubre 23, 2014 (GMT -0500)
Ernesto Cortissoz | Change Station
CLOSE
Current Station
Aeropuerto
Location: Barranquilla,
Altura: 98 ft
Estaciones meteorológicas cercanas

Alt 98 ft 10.88 °N, 74.78 °W | Updated 41 minutes ago

Partly Cloudy
Parcialmente nublado
79 ° F
Sensación térmica 79 ° F
N
0
Viento Variable Viento desde Norte

Hoy
Alta -- | Baja -- ° F
--% Posibilidad de precipitaciones
Ayer
Alta -- | Baja -- ° F
Precip. -- pul
5:48 AM 5:37 PM
Creciente menguante, 0% visible
Presión 29.82 pul
Visibilidad 6.2 Millas
Nubes Baja 1500 ft
Punto de rocío 77 ° F
Humedad 94%
Precipitaciones 0.00 pul
Espesor de la nieve No disponible.
UV 0 de una escala de 12
Polen No disponible.
Calidad del aire No disponible.
Flu Activity No disponible.
METAR SKBQ 230800Z 00000KT 9999 FEW015 26/25 A2982

More Conditions Fewer Conditions

Presión 29.82 pul
Visibilidad 6.2 Millas
Nubes Baja 1500 ft
Punto de rocío 77 ° F
Humedad 94%
Precipitaciones 0.00 pul
Espesor de la nieve No disponible.
UV 0 de una escala de 12
Polen No disponible.
Calidad del aire No disponible.
Flu Activity No disponible.
METAR SKBQ 230800Z 00000KT 9999 FEW015 26/25 A2982

More Conditions Fewer Conditions

10-Day Weather Forecast

Almanac

Astronomía

Oct. 23, 2014 Salida Puesta
Hora real 5:48 AM COT 5:37 PM COT
Crepúsculo civil 5:27 AM COT 5:59 PM COT
Crepúsculo náutico 5:02 AM COT 6:23 PM COT
Crepúsculo astronómico 4:37 AM COT 6:48 PM COT
Luna 5:30 AM COT 5:37 PM COT
Horas de luz 12h 31m
Horas de luz
11h 48m
Tomorrow will be 0m 32s shorter.
Creciente menguante, 0% of the Moon is Illuminated
Hoy
Creciente menguante
Oct 23
Nueva
Oct 30
Cuarto creciente
Nov 6
Luna llena
Nov 14
Cuarto menguante

Extremos de ayer

Máximos del país Bajas del país

Community

WunderPhotos

Upload Photos

1,764,197 ¡fotos cargadas!

Nearby

Calidad del aire

Not available.

Grosos de nieve

Not available.

Actividad de terremotos

Ciudad Distance Mag. Tiempo y dato
No hay informes recientes de la actividad sísmica.
Magnitud mínima muestra es 2,5.

Temperaturas de aguas costeras

Lugar Temperatura
Sin partes meteorológicos de las estaciones

Estaciones meteorológicas cercanas